sensor_id;sensor_type;location;lat;lon;timestamp;P1;durP1;ratioP1;P2;durP2;ratioP2
11964;SDS011;6042;41.326;19.826;2022-12-07T00:01:43;8.90;;;5.07;;
11964;SDS011;6042;41.326;19.826;2022-12-07T00:04:14;13.97;;;5.20;;
11964;SDS011;6042;41.326;19.826;2022-12-07T00:06:45;9.40;;;4.40;;
11964;SDS011;6042;41.326;19.826;2022-12-07T00:09:15;11.00;;;4.47;;
11964;SDS011;6042;41.326;19.826;2022-12-07T00:11:47;11.13;;;4.20;;
11964;SDS011;6042;41.326;19.826;2022-12-07T00:14:17;11.00;;;4.47;;
11964;SDS011;6042;41.326;19.826;2022-12-07T00:16:48;10.37;;;4.50;;
11964;SDS011;6042;41.326;19.826;2022-12-07T00:19:18;11.87;;;4.73;;
11964;SDS011;6042;41.326;19.826;2022-12-07T00:21:47;8.83;;;4.47;;
11964;SDS011;6042;41.326;19.826;2022-12-07T00:24:16;8.93;;;4.60;;
11964;SDS011;6042;41.326;19.826;2022-12-07T00:26:46;9.17;;;4.60;;
11964;SDS011;6042;41.326;19.826;2022-12-07T00:29:15;8.80;;;4.87;;
11964;SDS011;6042;41.326;19.826;2022-12-07T00:31:45;9.03;;;4.60;;
11964;SDS011;6042;41.326;19.826;2022-12-07T00:34:15;8.23;;;4.37;;
11964;SDS011;6042;41.326;19.826;2022-12-07T00:36:44;11.17;;;4.57;;
11964;SDS011;6042;41.326;19.826;2022-12-07T00:39:13;10.90;;;4.03;;
11964;SDS011;6042;41.326;19.826;2022-12-07T00:41:42;7.77;;;4.00;;
11964;SDS011;6042;41.326;19.826;2022-12-07T00:44:12;6.67;;;3.80;;
11964;SDS011;6042;41.326;19.826;2022-12-07T00:46:41;9.43;;;3.70;;
11964;SDS011;6042;41.326;19.826;2022-12-07T00:49:12;9.17;;;3.83;;
11964;SDS011;6042;41.326;19.826;2022-12-07T00:51:42;12.37;;;4.90;;
11964;SDS011;6042;41.326;19.826;2022-12-07T00:54:10;11.60;;;4.03;;
11964;SDS011;6042;41.326;19.826;2022-12-07T00:56:39;8.57;;;3.90;;
11964;SDS011;6042;41.326;19.826;2022-12-07T00:59:10;8.80;;;3.60;;
11964;SDS011;6042;41.326;19.826;2022-12-07T01:01:42;6.87;;;3.63;;
11964;SDS011;6042;41.326;19.826;2022-12-07T01:04:11;8.90;;;3.93;;
11964;SDS011;6042;41.326;19.826;2022-12-07T01:06:39;7.10;;;3.80;;
11964;SDS011;6042;41.326;19.826;2022-12-07T01:09:08;7.63;;;3.43;;
11964;SDS011;6042;41.326;19.826;2022-12-07T01:11:37;8.03;;;3.53;;
11964;SDS011;6042;41.326;19.826;2022-12-07T01:14:05;9.23;;;3.70;;
11964;SDS011;6042;41.326;19.826;2022-12-07T01:16:36;7.87;;;4.10;;
11964;SDS011;6042;41.326;19.826;2022-12-07T01:19:07;11.57;;;3.80;;
11964;SDS011;6042;41.326;19.826;2022-12-07T01:21:36;7.83;;;3.47;;
11964;SDS011;6042;41.326;19.826;2022-12-07T01:24:07;7.97;;;3.90;;
11964;SDS011;6042;41.326;19.826;2022-12-07T01:26:38;8.67;;;4.17;;
11964;SDS011;6042;41.326;19.826;2022-12-07T01:29:07;6.33;;;3.97;;
11964;SDS011;6042;41.326;19.826;2022-12-07T01:31:37;13.50;;;4.20;;
11964;SDS011;6042;41.326;19.826;2022-12-07T01:34:06;8.30;;;4.07;;
11964;SDS011;6042;41.326;19.826;2022-12-07T01:36:36;5.40;;;3.70;;
11964;SDS011;6042;41.326;19.826;2022-12-07T01:39:05;9.30;;;4.33;;
11964;SDS011;6042;41.326;19.826;2022-12-07T01:41:36;10.30;;;4.07;;
11964;SDS011;6042;41.326;19.826;2022-12-07T01:44:08;5.83;;;3.80;;
11964;SDS011;6042;41.326;19.826;2022-12-07T01:46:44;6.57;;;3.70;;
11964;SDS011;6042;41.326;19.826;2022-12-07T01:49:16;10.17;;;3.57;;
11964;SDS011;6042;41.326;19.826;2022-12-07T01:52:00;5.93;;;3.23;;
11964;SDS011;6042;41.326;19.826;2022-12-07T01:54:35;8.10;;;3.33;;
11964;SDS011;6042;41.326;19.826;2022-12-07T01:57:04;12.23;;;3.40;;
11964;SDS011;6042;41.326;19.826;2022-12-07T01:59:35;6.73;;;3.50;;
11964;SDS011;6042;41.326;19.826;2022-12-07T02:02:07;5.97;;;3.30;;
11964;SDS011;6042;41.326;19.826;2022-12-07T02:04:41;9.97;;;3.37;;
11964;SDS011;6042;41.326;19.826;2022-12-07T02:07:10;8.23;;;3.30;;
11964;SDS011;6042;41.326;19.826;2022-12-07T02:09:39;4.63;;;3.17;;
11964;SDS011;6042;41.326;19.826;2022-12-07T02:12:08;7.00;;;3.57;;
11964;SDS011;6042;41.326;19.826;2022-12-07T02:14:37;10.97;;;3.60;;
11964;SDS011;6042;41.326;19.826;2022-12-07T02:17:11;5.67;;;3.20;;
11964;SDS011;6042;41.326;19.826;2022-12-07T02:20:02;7.07;;;3.37;;
11964;SDS011;6042;41.326;19.826;2022-12-07T02:22:54;8.77;;;3.80;;
11964;SDS011;6042;41.326;19.826;2022-12-07T02:25:44;8.17;;;4.00;;
11964;SDS011;6042;41.326;19.826;2022-12-07T02:28:54;9.03;;;3.43;;
11964;SDS011;6042;41.326;19.826;2022-12-07T02:31:43;7.87;;;3.90;;
11964;SDS011;6042;41.326;19.826;2022-12-07T02:34:18;7.07;;;4.03;;
11964;SDS011;6042;41.326;19.826;2022-12-07T02:36:53;12.90;;;4.03;;
11964;SDS011;6042;41.326;19.826;2022-12-07T02:39:28;10.03;;;4.47;;
11964;SDS011;6042;41.326;19.826;2022-12-07T02:42:02;7.43;;;3.40;;
11964;SDS011;6042;41.326;19.826;2022-12-07T02:44:38;8.53;;;3.90;;
11964;SDS011;6042;41.326;19.826;2022-12-07T02:47:09;12.60;;;4.47;;
11964;SDS011;6042;41.326;19.826;2022-12-07T02:49:42;4.97;;;3.40;;
11964;SDS011;6042;41.326;19.826;2022-12-07T02:52:11;8.03;;;3.50;;
11964;SDS011;6042;41.326;19.826;2022-12-07T02:54:40;7.87;;;4.23;;
11964;SDS011;6042;41.326;19.826;2022-12-07T02:57:14;5.70;;;3.20;;
11964;SDS011;6042;41.326;19.826;2022-12-07T02:59:59;6.30;;;3.53;;
11964;SDS011;6042;41.326;19.826;2022-12-07T03:02:36;6.67;;;3.57;;
11964;SDS011;6042;41.326;19.826;2022-12-07T03:05:19;6.80;;;3.60;;
11964;SDS011;6042;41.326;19.826;2022-12-07T03:08:04;8.03;;;3.80;;
11964;SDS011;6042;41.326;19.826;2022-12-07T03:10:40;6.53;;;3.67;;
11964;SDS011;6042;41.326;19.826;2022-12-07T03:13:18;4.67;;;3.60;;
11964;SDS011;6042;41.326;19.826;2022-12-07T03:15:54;10.53;;;4.33;;
11964;SDS011;6042;41.326;19.826;2022-12-07T03:18:28;12.30;;;4.17;;
11964;SDS011;6042;41.326;19.826;2022-12-07T03:21:01;6.20;;;3.60;;
11964;SDS011;6042;41.326;19.826;2022-12-07T03:23:32;10.50;;;3.70;;
11964;SDS011;6042;41.326;19.826;2022-12-07T03:26:05;9.43;;;3.97;;
11964;SDS011;6042;41.326;19.826;2022-12-07T03:28:38;10.23;;;4.00;;
11964;SDS011;6042;41.326;19.826;2022-12-07T03:31:14;7.33;;;4.10;;
11964;SDS011;6042;41.326;19.826;2022-12-07T03:33:47;5.57;;;3.90;;
11964;SDS011;6042;41.326;19.826;2022-12-07T03:36:24;5.87;;;4.03;;
11964;SDS011;6042;41.326;19.826;2022-12-07T03:38:58;6.60;;;3.60;;
11964;SDS011;6042;41.326;19.826;2022-12-07T03:41:35;9.27;;;4.13;;
11964;SDS011;6042;41.326;19.826;2022-12-07T03:44:10;8.40;;;4.00;;
11964;SDS011;6042;41.326;19.826;2022-12-07T03:46:44;5.57;;;3.63;;
11964;SDS011;6042;41.326;19.826;2022-12-07T03:49:21;9.10;;;3.60;;
11964;SDS011;6042;41.326;19.826;2022-12-07T03:51:54;5.50;;;3.00;;
11964;SDS011;6042;41.326;19.826;2022-12-07T03:54:29;11.13;;;4.27;;
11964;SDS011;6042;41.326;19.826;2022-12-07T03:57:01;6.17;;;3.60;;
11964;SDS011;6042;41.326;19.826;2022-12-07T03:59:32;11.13;;;4.27;;
11964;SDS011;6042;41.326;19.826;2022-12-07T04:02:05;8.67;;;4.10;;
11964;SDS011;6042;41.326;19.826;2022-12-07T04:04:35;6.17;;;3.97;;
11964;SDS011;6042;41.326;19.826;2022-12-07T04:07:03;6.67;;;3.80;;
11964;SDS011;6042;41.326;19.826;2022-12-07T04:09:32;10.17;;;4.30;;
11964;SDS011;6042;41.326;19.826;2022-12-07T04:12:00;7.20;;;4.20;;
11964;SDS011;6042;41.326;19.826;2022-12-07T04:14:30;6.27;;;4.10;;
11964;SDS011;6042;41.326;19.826;2022-12-07T04:17:00;10.87;;;4.20;;
11964;SDS011;6042;41.326;19.826;2022-12-07T04:19:31;9.80;;;4.20;;
11964;SDS011;6042;41.326;19.826;2022-12-07T04:22:03;5.67;;;3.87;;
11964;SDS011;6042;41.326;19.826;2022-12-07T04:24:32;10.10;;;4.40;;
11964;SDS011;6042;41.326;19.826;2022-12-07T04:27:01;7.40;;;4.00;;
11964;SDS011;6042;41.326;19.826;2022-12-07T04:29:30;7.70;;;4.03;;
11964;SDS011;6042;41.326;19.826;2022-12-07T04:31:59;6.63;;;3.80;;
11964;SDS011;6042;41.326;19.826;2022-12-07T04:34:27;12.10;;;3.77;;
11964;SDS011;6042;41.326;19.826;2022-12-07T04:36:57;5.53;;;3.77;;
11964;SDS011;6042;41.326;19.826;2022-12-07T04:39:27;7.17;;;3.70;;
11964;SDS011;6042;41.326;19.826;2022-12-07T04:41:57;13.23;;;3.93;;
11964;SDS011;6042;41.326;19.826;2022-12-07T04:44:26;6.90;;;3.37;;
11964;SDS011;6042;41.326;19.826;2022-12-07T04:46:56;11.73;;;3.57;;
11964;SDS011;6042;41.326;19.826;2022-12-07T04:49:25;6.00;;;3.50;;
11964;SDS011;6042;41.326;19.826;2022-12-07T04:51:53;6.70;;;3.63;;
11964;SDS011;6042;41.326;19.826;2022-12-07T04:54:23;9.67;;;3.47;;
11964;SDS011;6042;41.326;19.826;2022-12-07T04:56:52;7.20;;;4.57;;
11964;SDS011;6042;41.326;19.826;2022-12-07T04:59:21;7.53;;;3.50;;
11964;SDS011;6042;41.326;19.826;2022-12-07T05:01:49;5.40;;;3.43;;
11964;SDS011;6042;41.326;19.826;2022-12-07T05:04:18;9.00;;;3.90;;
11964;SDS011;6042;41.326;19.826;2022-12-07T05:06:46;14.63;;;3.83;;
11964;SDS011;6042;41.326;19.826;2022-12-07T05:09:15;11.00;;;3.97;;
11964;SDS011;6042;41.326;19.826;2022-12-07T05:11:45;7.93;;;4.00;;
11964;SDS011;6042;41.326;19.826;2022-12-07T05:14:14;9.90;;;3.80;;
11964;SDS011;6042;41.326;19.826;2022-12-07T05:16:47;9.73;;;4.07;;
11964;SDS011;6042;41.326;19.826;2022-12-07T05:19:18;8.73;;;3.77;;
11964;SDS011;6042;41.326;19.826;2022-12-07T05:21:47;10.73;;;3.80;;
11964;SDS011;6042;41.326;19.826;2022-12-07T05:24:16;8.20;;;3.83;;
11964;SDS011;6042;41.326;19.826;2022-12-07T05:26:46;7.23;;;3.50;;
11964;SDS011;6042;41.326;19.826;2022-12-07T05:29:16;10.63;;;4.67;;
11964;SDS011;6042;41.326;19.826;2022-12-07T05:31:45;8.33;;;4.13;;
11964;SDS011;6042;41.326;19.826;2022-12-07T05:34:14;6.83;;;3.60;;
11964;SDS011;6042;41.326;19.826;2022-12-07T05:36:42;12.93;;;4.40;;
11964;SDS011;6042;41.326;19.826;2022-12-07T05:39:11;12.70;;;4.03;;
11964;SDS011;6042;41.326;19.826;2022-12-07T05:41:39;7.27;;;3.70;;
11964;SDS011;6042;41.326;19.826;2022-12-07T05:44:27;11.80;;;3.60;;
11964;SDS011;6042;41.326;19.826;2022-12-07T05:46:56;8.03;;;3.60;;
11964;SDS011;6042;41.326;19.826;2022-12-07T05:49:25;8.83;;;4.00;;
11964;SDS011;6042;41.326;19.826;2022-12-07T05:52:00;15.63;;;4.00;;
11964;SDS011;6042;41.326;19.826;2022-12-07T05:54:29;10.10;;;3.20;;
11964;SDS011;6042;41.326;19.826;2022-12-07T05:56:57;9.10;;;4.03;;
11964;SDS011;6042;41.326;19.826;2022-12-07T05:59:27;7.60;;;3.87;;
11964;SDS011;6042;41.326;19.826;2022-12-07T06:01:56;10.93;;;4.13;;
11964;SDS011;6042;41.326;19.826;2022-12-07T06:04:28;8.00;;;4.07;;
11964;SDS011;6042;41.326;19.826;2022-12-07T06:06:58;8.50;;;3.80;;
11964;SDS011;6042;41.326;19.826;2022-12-07T06:09:27;9.93;;;4.40;;
11964;SDS011;6042;41.326;19.826;2022-12-07T06:11:57;10.40;;;3.87;;
11964;SDS011;6042;41.326;19.826;2022-12-07T06:14:41;10.13;;;3.83;;
11964;SDS011;6042;41.326;19.826;2022-12-07T06:17:10;9.67;;;4.57;;
11964;SDS011;6042;41.326;19.826;2022-12-07T06:19:39;6.00;;;3.27;;
11964;SDS011;6042;41.326;19.826;2022-12-07T06:22:08;7.90;;;3.73;;
11964;SDS011;6042;41.326;19.826;2022-12-07T06:24:38;5.97;;;3.43;;
11964;SDS011;6042;41.326;19.826;2022-12-07T06:27:07;9.20;;;3.73;;
11964;SDS011;6042;41.326;19.826;2022-12-07T06:29:36;11.40;;;4.67;;
11964;SDS011;6042;41.326;19.826;2022-12-07T06:32:05;11.63;;;4.07;;
11964;SDS011;6042;41.326;19.826;2022-12-07T06:34:34;10.47;;;4.33;;
11964;SDS011;6042;41.326;19.826;2022-12-07T06:37:03;11.00;;;3.80;;
11964;SDS011;6042;41.326;19.826;2022-12-07T06:39:34;6.87;;;3.93;;
11964;SDS011;6042;41.326;19.826;2022-12-07T06:42:03;9.23;;;3.90;;
11964;SDS011;6042;41.326;19.826;2022-12-07T06:44:32;11.17;;;3.90;;
11964;SDS011;6042;41.326;19.826;2022-12-07T06:47:00;11.63;;;4.63;;
11964;SDS011;6042;41.326;19.826;2022-12-07T06:49:51;11.53;;;5.70;;
11964;SDS011;6042;41.326;19.826;2022-12-07T06:52:19;7.30;;;5.83;;
11964;SDS011;6042;41.326;19.826;2022-12-07T06:54:48;7.73;;;5.23;;
11964;SDS011;6042;41.326;19.826;2022-12-07T06:57:16;9.70;;;4.13;;
11964;SDS011;6042;41.326;19.826;2022-12-07T06:59:46;8.67;;;4.57;;
11964;SDS011;6042;41.326;19.826;2022-12-07T07:02:15;9.43;;;3.77;;
11964;SDS011;6042;41.326;19.826;2022-12-07T07:04:44;11.30;;;4.50;;
11964;SDS011;6042;41.326;19.826;2022-12-07T07:07:14;9.87;;;4.40;;
11964;SDS011;6042;41.326;19.826;2022-12-07T07:09:43;13.97;;;4.10;;
11964;SDS011;6042;41.326;19.826;2022-12-07T07:12:11;11.57;;;4.70;;
11964;SDS011;6042;41.326;19.826;2022-12-07T07:14:40;17.10;;;5.10;;
11964;SDS011;6042;41.326;19.826;2022-12-07T07:17:09;15.50;;;5.20;;
11964;SDS011;6042;41.326;19.826;2022-12-07T07:19:38;7.37;;;4.50;;
11964;SDS011;6042;41.326;19.826;2022-12-07T07:22:07;8.37;;;4.07;;
11964;SDS011;6042;41.326;19.826;2022-12-07T07:24:37;11.00;;;4.00;;
11964;SDS011;6042;41.326;19.826;2022-12-07T07:27:05;11.80;;;4.57;;
11964;SDS011;6042;41.326;19.826;2022-12-07T07:29:34;14.97;;;5.10;;
11964;SDS011;6042;41.326;19.826;2022-12-07T07:32:03;12.93;;;4.33;;
11964;SDS011;6042;41.326;19.826;2022-12-07T07:34:34;8.80;;;3.83;;
11964;SDS011;6042;41.326;19.826;2022-12-07T07:37:02;9.50;;;4.00;;
11964;SDS011;6042;41.326;19.826;2022-12-07T07:39:31;10.97;;;5.23;;
11964;SDS011;6042;41.326;19.826;2022-12-07T07:42:01;11.47;;;4.33;;
11964;SDS011;6042;41.326;19.826;2022-12-07T07:44:32;13.07;;;4.90;;
11964;SDS011;6042;41.326;19.826;2022-12-07T07:47:01;10.83;;;5.60;;
11964;SDS011;6042;41.326;19.826;2022-12-07T07:49:30;18.03;;;6.17;;
11964;SDS011;6042;41.326;19.826;2022-12-07T07:51:58;14.43;;;6.40;;
11964;SDS011;6042;41.326;19.826;2022-12-07T07:54:27;13.27;;;6.23;;
11964;SDS011;6042;41.326;19.826;2022-12-07T07:56:56;12.43;;;5.67;;
11964;SDS011;6042;41.326;19.826;2022-12-07T07:59:26;15.73;;;6.60;;
11964;SDS011;6042;41.326;19.826;2022-12-07T08:01:55;24.67;;;7.30;;
11964;SDS011;6042;41.326;19.826;2022-12-07T08:04:29;27.50;;;10.47;;
11964;SDS011;6042;41.326;19.826;2022-12-07T08:07:02;28.37;;;10.20;;
11964;SDS011;6042;41.326;19.826;2022-12-07T08:09:30;13.57;;;9.03;;
11964;SDS011;6042;41.326;19.826;2022-12-07T08:11:59;19.63;;;8.53;;
11964;SDS011;6042;41.326;19.826;2022-12-07T08:14:29;31.33;;;9.90;;
11964;SDS011;6042;41.326;19.826;2022-12-07T08:16:58;19.93;;;7.07;;
11964;SDS011;6042;41.326;19.826;2022-12-07T08:19:27;17.53;;;7.30;;
11964;SDS011;6042;41.326;19.826;2022-12-07T08:21:55;19.50;;;8.37;;
11964;SDS011;6042;41.326;19.826;2022-12-07T08:24:24;16.77;;;7.87;;
11964;SDS011;6042;41.326;19.826;2022-12-07T08:26:53;17.10;;;7.87;;
11964;SDS011;6042;41.326;19.826;2022-12-07T08:29:21;23.77;;;9.10;;
11964;SDS011;6042;41.326;19.826;2022-12-07T08:31:51;28.77;;;10.17;;
11964;SDS011;6042;41.326;19.826;2022-12-07T08:34:20;26.87;;;10.67;;
11964;SDS011;6042;41.326;19.826;2022-12-07T08:36:49;24.17;;;11.53;;
11964;SDS011;6042;41.326;19.826;2022-12-07T08:39:19;25.67;;;11.30;;
11964;SDS011;6042;41.326;19.826;2022-12-07T08:41:57;32.63;;;15.93;;
11964;SDS011;6042;41.326;19.826;2022-12-07T08:44:26;36.57;;;17.73;;
11964;SDS011;6042;41.326;19.826;2022-12-07T08:46:58;38.80;;;17.53;;
11964;SDS011;6042;41.326;19.826;2022-12-07T08:49:30;29.00;;;15.70;;
11964;SDS011;6042;41.326;19.826;2022-12-07T08:52:05;35.13;;;17.93;;
11964;SDS011;6042;41.326;19.826;2022-12-07T08:54:34;41.30;;;17.47;;
11964;SDS011;6042;41.326;19.826;2022-12-07T08:57:06;35.50;;;17.30;;
11964;SDS011;6042;41.326;19.826;2022-12-07T08:59:36;41.40;;;18.87;;
11964;SDS011;6042;41.326;19.826;2022-12-07T09:02:07;42.37;;;17.40;;
11964;SDS011;6042;41.326;19.826;2022-12-07T09:04:36;36.80;;;16.33;;
11964;SDS011;6042;41.326;19.826;2022-12-07T09:07:04;30.23;;;15.43;;
11964;SDS011;6042;41.326;19.826;2022-12-07T09:09:33;42.87;;;17.07;;
11964;SDS011;6042;41.326;19.826;2022-12-07T09:12:02;28.77;;;13.00;;
11964;SDS011;6042;41.326;19.826;2022-12-07T09:14:31;18.10;;;10.07;;
11964;SDS011;6042;41.326;19.826;2022-12-07T09:17:04;31.27;;;14.37;;
11964;SDS011;6042;41.326;19.826;2022-12-07T09:19:35;24.17;;;9.67;;
11964;SDS011;6042;41.326;19.826;2022-12-07T09:22:04;16.13;;;8.93;;
11964;SDS011;6042;41.326;19.826;2022-12-07T09:24:34;23.03;;;10.90;;
11964;SDS011;6042;41.326;19.826;2022-12-07T09:27:02;22.70;;;9.40;;
11964;SDS011;6042;41.326;19.826;2022-12-07T09:29:31;20.70;;;9.93;;
11964;SDS011;6042;41.326;19.826;2022-12-07T09:32:00;31.77;;;15.17;;
11964;SDS011;6042;41.326;19.826;2022-12-07T09:34:37;25.47;;;13.27;;
11964;SDS011;6042;41.326;19.826;2022-12-07T09:37:06;28.57;;;11.63;;
11964;SDS011;6042;41.326;19.826;2022-12-07T09:39:37;39.77;;;13.37;;
11964;SDS011;6042;41.326;19.826;2022-12-07T09:42:19;24.17;;;10.13;;
11964;SDS011;6042;41.326;19.826;2022-12-07T09:44:56;28.77;;;12.17;;
11964;SDS011;6042;41.326;19.826;2022-12-07T09:47:26;23.80;;;11.53;;
11964;SDS011;6042;41.326;19.826;2022-12-07T09:50:00;28.80;;;10.47;;
11964;SDS011;6042;41.326;19.826;2022-12-07T09:52:33;25.53;;;12.03;;
11964;SDS011;6042;41.326;19.826;2022-12-07T09:55:08;21.97;;;7.50;;
11964;SDS011;6042;41.326;19.826;2022-12-07T09:57:39;14.70;;;8.10;;
11964;SDS011;6042;41.326;19.826;2022-12-07T10:00:11;19.83;;;9.40;;
11964;SDS011;6042;41.326;19.826;2022-12-07T10:02:44;15.17;;;9.20;;
11964;SDS011;6042;41.326;19.826;2022-12-07T10:05:20;24.23;;;8.63;;
11964;SDS011;6042;41.326;19.826;2022-12-07T10:07:52;25.33;;;9.27;;
11964;SDS011;6042;41.326;19.826;2022-12-07T10:10:22;15.53;;;7.23;;
11964;SDS011;6042;41.326;19.826;2022-12-07T10:12:57;21.33;;;7.53;;
11964;SDS011;6042;41.326;19.826;2022-12-07T10:15:43;15.03;;;6.20;;
11964;SDS011;6042;41.326;19.826;2022-12-07T10:18:21;8.77;;;5.10;;
11964;SDS011;6042;41.326;19.826;2022-12-07T10:21:09;9.67;;;4.30;;
11964;SDS011;6042;41.326;19.826;2022-12-07T10:23:40;10.43;;;4.17;;
11964;SDS011;6042;41.326;19.826;2022-12-07T10:26:19;8.17;;;4.20;;
11964;SDS011;6042;41.326;19.826;2022-12-07T10:28:54;7.53;;;3.93;;
11964;SDS011;6042;41.326;19.826;2022-12-07T10:31:24;6.37;;;3.87;;
11964;SDS011;6042;41.326;19.826;2022-12-07T10:33:53;6.93;;;4.17;;
11964;SDS011;6042;41.326;19.826;2022-12-07T10:36:26;13.27;;;5.63;;
11964;SDS011;6042;41.326;19.826;2022-12-07T10:39:03;17.73;;;5.17;;
11964;SDS011;6042;41.326;19.826;2022-12-07T10:41:52;9.43;;;4.30;;
11964;SDS011;6042;41.326;19.826;2022-12-07T10:44:24;6.40;;;3.33;;
11964;SDS011;6042;41.326;19.826;2022-12-07T10:46:57;6.60;;;2.80;;
11964;SDS011;6042;41.326;19.826;2022-12-07T10:53:14;10.87;;;3.00;;
11964;SDS011;6042;41.326;19.826;2022-12-07T10:55:57;11.77;;;2.73;;
11964;SDS011;6042;41.326;19.826;2022-12-07T10:58:48;5.17;;;2.00;;
11964;SDS011;6042;41.326;19.826;2022-12-07T11:01:29;7.37;;;2.33;;
11964;SDS011;6042;41.326;19.826;2022-12-07T11:04:15;4.43;;;2.20;;
11964;SDS011;6042;41.326;19.826;2022-12-07T11:06:51;5.10;;;2.27;;
11964;SDS011;6042;41.326;19.826;2022-12-07T11:12:42;5.40;;;2.50;;
11964;SDS011;6042;41.326;19.826;2022-12-07T11:15:19;4.40;;;2.30;;
11964;SDS011;6042;41.326;19.826;2022-12-07T11:17:54;14.70;;;3.30;;
11964;SDS011;6042;41.326;19.826;2022-12-07T11:20:32;9.83;;;2.70;;
11964;SDS011;6042;41.326;19.826;2022-12-07T11:23:12;9.37;;;3.53;;
11964;SDS011;6042;41.326;19.826;2022-12-07T11:25:49;15.17;;;2.57;;
11964;SDS011;6042;41.326;19.826;2022-12-07T11:28:32;6.83;;;2.67;;
11964;SDS011;6042;41.326;19.826;2022-12-07T11:31:16;11.80;;;2.70;;
11964;SDS011;6042;41.326;19.826;2022-12-07T11:33:56;3.70;;;2.10;;
11964;SDS011;6042;41.326;19.826;2022-12-07T11:36:33;5.67;;;2.13;;
11964;SDS011;6042;41.326;19.826;2022-12-07T11:39:09;4.40;;;2.23;;
11964;SDS011;6042;41.326;19.826;2022-12-07T11:41:45;7.17;;;2.43;;
11964;SDS011;6042;41.326;19.826;2022-12-07T11:44:20;9.43;;;2.27;;
11964;SDS011;6042;41.326;19.826;2022-12-07T11:46:59;7.53;;;2.13;;
11964;SDS011;6042;41.326;19.826;2022-12-07T11:49:37;7.60;;;2.83;;
11964;SDS011;6042;41.326;19.826;2022-12-07T11:52:14;6.17;;;2.60;;
11964;SDS011;6042;41.326;19.826;2022-12-07T11:54:50;6.93;;;2.30;;
11964;SDS011;6042;41.326;19.826;2022-12-07T11:57:24;16.60;;;2.77;;
11964;SDS011;6042;41.326;19.826;2022-12-07T12:00:01;4.53;;;2.07;;
11964;SDS011;6042;41.326;19.826;2022-12-07T12:02:35;4.33;;;2.00;;
11964;SDS011;6042;41.326;19.826;2022-12-07T12:05:12;7.73;;;2.50;;
11964;SDS011;6042;41.326;19.826;2022-12-07T12:07:44;6.13;;;2.20;;
11964;SDS011;6042;41.326;19.826;2022-12-07T12:10:39;13.30;;;2.57;;
11964;SDS011;6042;41.326;19.826;2022-12-07T12:17:02;7.03;;;2.15;;
11964;SDS011;6042;41.326;19.826;2022-12-07T12:19:44;7.38;;;2.63;;
11964;SDS011;6042;41.326;19.826;2022-12-07T12:22:32;6.40;;;2.60;;
11964;SDS011;6042;41.326;19.826;2022-12-07T12:25:05;5.57;;;2.60;;
11964;SDS011;6042;41.326;19.826;2022-12-07T12:27:42;7.82;;;1.80;;
11964;SDS011;6042;41.326;19.826;2022-12-07T12:33:13;6.55;;;2.00;;
11964;SDS011;6042;41.326;19.826;2022-12-07T12:35:45;9.70;;;2.58;;
11964;SDS011;6042;41.326;19.826;2022-12-07T12:38:47;7.50;;;1.97;;
11964;SDS011;6042;41.326;19.826;2022-12-07T12:44:40;10.73;;;2.10;;
11964;SDS011;6042;41.326;19.826;2022-12-07T12:47:52;7.50;;;2.20;;
11964;SDS011;6042;41.326;19.826;2022-12-07T12:50:27;10.57;;;2.47;;
11964;SDS011;6042;41.326;19.826;2022-12-07T12:53:01;9.13;;;2.70;;
11964;SDS011;6042;41.326;19.826;2022-12-07T12:58:50;4.60;;;1.77;;
11964;SDS011;6042;41.326;19.826;2022-12-07T13:01:54;8.53;;;2.40;;
11964;SDS011;6042;41.326;19.826;2022-12-07T13:04:34;10.37;;;2.30;;
11964;SDS011;6042;41.326;19.826;2022-12-07T13:10:21;5.87;;;1.80;;
11964;SDS011;6042;41.326;19.826;2022-12-07T13:12:56;5.63;;;2.00;;
11964;SDS011;6042;41.326;19.826;2022-12-07T13:15:35;7.33;;;1.83;;
11964;SDS011;6042;41.326;19.826;2022-12-07T13:18:23;6.47;;;2.27;;
11964;SDS011;6042;41.326;19.826;2022-12-07T13:20:54;13.40;;;3.77;;
11964;SDS011;6042;41.326;19.826;2022-12-07T13:23:27;9.77;;;2.40;;
11964;SDS011;6042;41.326;19.826;2022-12-07T13:26:04;8.50;;;2.60;;
11964;SDS011;6042;41.326;19.826;2022-12-07T13:28:45;8.53;;;2.17;;
11964;SDS011;6042;41.326;19.826;2022-12-07T13:31:32;8.60;;;2.80;;
11964;SDS011;6042;41.326;19.826;2022-12-07T13:34:02;10.30;;;2.73;;
11964;SDS011;6042;41.326;19.826;2022-12-07T13:36:33;11.27;;;2.77;;
11964;SDS011;6042;41.326;19.826;2022-12-07T13:39:11;21.30;;;6.00;;
11964;SDS011;6042;41.326;19.826;2022-12-07T13:41:49;7.07;;;2.57;;
11964;SDS011;6042;41.326;19.826;2022-12-07T13:44:19;15.33;;;3.63;;
11964;SDS011;6042;41.326;19.826;2022-12-07T13:46:51;14.97;;;3.70;;
11964;SDS011;6042;41.326;19.826;2022-12-07T13:49:26;10.27;;;2.97;;
11964;SDS011;6042;41.326;19.826;2022-12-07T13:52:07;10.53;;;3.13;;
11964;SDS011;6042;41.326;19.826;2022-12-07T13:54:46;13.13;;;3.33;;
11964;SDS011;6042;41.326;19.826;2022-12-07T13:57:42;9.53;;;2.90;;
11964;SDS011;6042;41.326;19.826;2022-12-07T14:00:15;14.63;;;3.93;;
11964;SDS011;6042;41.326;19.826;2022-12-07T14:02:56;13.60;;;4.63;;
11964;SDS011;6042;41.326;19.826;2022-12-07T14:05:27;13.10;;;3.40;;
11964;SDS011;6042;41.326;19.826;2022-12-07T14:07:57;11.33;;;3.37;;
11964;SDS011;6042;41.326;19.826;2022-12-07T14:10:28;9.27;;;3.90;;
11964;SDS011;6042;41.326;19.826;2022-12-07T14:13:00;18.10;;;5.17;;
11964;SDS011;6042;41.326;19.826;2022-12-07T14:15:30;14.10;;;4.47;;
11964;SDS011;6042;41.326;19.826;2022-12-07T14:18:02;17.60;;;4.57;;
11964;SDS011;6042;41.326;19.826;2022-12-07T14:20:32;16.73;;;5.07;;
11964;SDS011;6042;41.326;19.826;2022-12-07T14:23:02;13.00;;;5.07;;
11964;SDS011;6042;41.326;19.826;2022-12-07T14:25:44;17.53;;;6.80;;
11964;SDS011;6042;41.326;19.826;2022-12-07T14:28:26;16.60;;;5.97;;
11964;SDS011;6042;41.326;19.826;2022-12-07T14:30:56;12.63;;;4.47;;
11964;SDS011;6042;41.326;19.826;2022-12-07T14:33:26;12.53;;;4.47;;
11964;SDS011;6042;41.326;19.826;2022-12-07T14:35:55;11.83;;;4.27;;
11964;SDS011;6042;41.326;19.826;2022-12-07T14:38:25;12.50;;;4.73;;
11964;SDS011;6042;41.326;19.826;2022-12-07T14:40:53;15.00;;;6.00;;
11964;SDS011;6042;41.326;19.826;2022-12-07T14:43:45;14.70;;;5.30;;
11964;SDS011;6042;41.326;19.826;2022-12-07T14:46:34;9.40;;;3.77;;
11964;SDS011;6042;41.326;19.826;2022-12-07T14:49:04;17.57;;;4.10;;
11964;SDS011;6042;41.326;19.826;2022-12-07T14:51:53;8.23;;;3.10;;
11964;SDS011;6042;41.326;19.826;2022-12-07T14:54:42;14.10;;;5.10;;
11964;SDS011;6042;41.326;19.826;2022-12-07T14:57:11;21.07;;;7.00;;
11964;SDS011;6042;41.326;19.826;2022-12-07T14:59:41;19.80;;;5.70;;
11964;SDS011;6042;41.326;19.826;2022-12-07T15:02:11;16.27;;;6.00;;
11964;SDS011;6042;41.326;19.826;2022-12-07T15:04:42;15.57;;;4.87;;
11964;SDS011;6042;41.326;19.826;2022-12-07T15:07:14;14.13;;;5.17;;
11964;SDS011;6042;41.326;19.826;2022-12-07T15:09:46;21.70;;;5.87;;
11964;SDS011;6042;41.326;19.826;2022-12-07T15:12:14;21.23;;;6.53;;
11964;SDS011;6042;41.326;19.826;2022-12-07T15:14:44;19.20;;;7.97;;
11964;SDS011;6042;41.326;19.826;2022-12-07T15:17:12;28.57;;;9.00;;
11964;SDS011;6042;41.326;19.826;2022-12-07T15:19:56;21.47;;;8.83;;
11964;SDS011;6042;41.326;19.826;2022-12-07T15:22:25;27.43;;;6.67;;
11964;SDS011;6042;41.326;19.826;2022-12-07T15:25:00;20.17;;;7.07;;
11964;SDS011;6042;41.326;19.826;2022-12-07T15:27:31;22.23;;;7.37;;
11964;SDS011;6042;41.326;19.826;2022-12-07T15:29:59;19.77;;;6.80;;
11964;SDS011;6042;41.326;19.826;2022-12-07T15:32:29;19.30;;;6.50;;
11964;SDS011;6042;41.326;19.826;2022-12-07T15:34:59;11.63;;;5.53;;
11964;SDS011;6042;41.326;19.826;2022-12-07T15:37:28;18.10;;;6.80;;
11964;SDS011;6042;41.326;19.826;2022-12-07T15:39:57;30.87;;;11.93;;